createdAt,value
2018-08-06T00:01:14.683Z,13.9
2018-08-06T00:06:16.398Z,13.8
2018-08-06T00:11:19.015Z,13.7
2018-08-06T00:16:21.437Z,13.6
2018-08-06T00:21:23.786Z,13.5
2018-08-06T00:26:26.415Z,13.3
2018-08-06T00:31:28.697Z,13.3
2018-08-06T00:36:31.178Z,13.2
2018-08-06T00:41:33.595Z,13.4
2018-08-06T00:46:36.182Z,13.4
2018-08-06T00:51:38.660Z,13.4
2018-08-06T00:56:40.980Z,13.3
2018-08-06T01:01:43.430Z,13.2
2018-08-06T01:06:45.932Z,13.2
2018-08-06T01:11:48.355Z,13.1
2018-08-06T01:16:51.094Z,13.1
2018-08-06T01:21:53.769Z,13.1
2018-08-06T01:26:55.733Z,13.1
2018-08-06T01:31:58.291Z,13
2018-08-06T01:37:00.637Z,12.9
2018-08-06T01:42:03.179Z,12.9
2018-08-06T01:47:05.565Z,12.9
2018-08-06T01:52:08.020Z,12.9
2018-08-06T01:57:10.465Z,12.8
2018-08-06T02:02:12.939Z,12.8
2018-08-06T02:07:15.493Z,12.7
2018-08-06T02:12:17.884Z,12.6
2018-08-06T02:17:20.606Z,12.6
2018-08-06T02:22:22.763Z,12.5
2018-08-06T02:27:25.230Z,12.5
2018-08-06T02:32:27.738Z,12.6
2018-08-06T02:37:30.190Z,12.5
2018-08-06T02:42:32.716Z,12.4
2018-08-06T02:47:35.034Z,12.4
2018-08-06T02:52:37.884Z,12.3
2018-08-06T02:57:40.383Z,12.2
2018-08-06T03:02:42.477Z,12.2
2018-08-06T03:07:44.941Z,12.2
2018-08-06T03:12:47.595Z,12.2
2018-08-06T03:17:49.809Z,12.2
2018-08-06T03:22:52.295Z,12
2018-08-06T03:27:54.725Z,12
2018-08-06T03:32:57.476Z,11.9
2018-08-06T03:37:59.846Z,11.8
2018-08-06T03:43:02.251Z,11.8
2018-08-06T03:48:04.561Z,11.8
2018-08-06T03:53:07.362Z,11.6
2018-08-06T03:58:09.456Z,11.7
2018-08-06T04:03:11.950Z,11.7
2018-08-06T04:08:15.203Z,11.8
2018-08-06T04:13:16.850Z,11.9
2018-08-06T04:18:19.506Z,11.9
2018-08-06T04:23:21.744Z,12.1
2018-08-06T04:28:24.195Z,12.1
2018-08-06T04:33:27.192Z,12.2
2018-08-06T04:38:29.168Z,12.4
2018-08-06T04:43:31.601Z,12.6
2018-08-06T04:48:39.028Z,12.7
2018-08-06T04:53:36.503Z,12.8
2018-08-06T04:58:38.979Z,12.9
2018-08-06T05:03:41.593Z,13
2018-08-06T05:08:44.023Z,13.4
2018-08-06T05:13:46.418Z,13.7
2018-08-06T05:18:48.778Z,14.1
2018-08-06T05:23:51.354Z,15.9
2018-08-06T05:28:53.790Z,20.6
2018-08-06T05:33:56.741Z,25.4
2018-08-06T05:38:58.652Z,28.6
2018-08-06T05:44:01.170Z,30.2
2018-08-06T05:49:03.725Z,31
2018-08-06T05:54:06.167Z,33
2018-08-06T05:59:08.774Z,34.1
2018-08-06T06:04:11.008Z,35.6
2018-08-06T06:09:13.371Z,36.7
2018-08-06T06:14:15.832Z,37.2
2018-08-06T06:19:18.479Z,38.1
2018-08-06T06:24:21.067Z,37.4
2018-08-06T06:29:23.240Z,36.9
2018-08-06T06:34:25.842Z,37.2
2018-08-06T06:39:28.464Z,38
2018-08-06T06:44:30.598Z,37.6
2018-08-06T06:49:33.079Z,36.8
2018-08-06T06:54:35.564Z,36.9
2018-08-06T06:59:38.162Z,37.6
2018-08-06T07:04:40.456Z,38.5
2018-08-06T07:09:42.888Z,39.3
2018-08-06T07:14:45.427Z,40.2
2018-08-06T07:24:50.312Z,41.2
2018-08-06T07:29:52.741Z,41.6
2018-08-06T07:34:55.245Z,41.1
2018-08-06T07:39:57.806Z,41.2
2018-08-06T07:45:00.233Z,40.2
2018-08-06T07:50:04.266Z,39.7
2018-08-06T07:55:05.071Z,39.6
2018-08-06T08:00:07.522Z,39.4
2018-08-06T08:05:10.055Z,38.9
2018-08-06T08:10:12.597Z,38.8
2018-08-06T08:15:15.157Z,39.4
2018-08-06T08:20:17.816Z,40.3
2018-08-06T08:30:25.026Z,41.4
2018-08-06T08:35:24.720Z,42.4
2018-08-06T08:40:27.196Z,43.2
2018-08-06T08:45:29.816Z,43
2018-08-06T08:50:32.213Z,39
2018-08-06T08:55:34.558Z,37.2
2018-08-06T09:00:37.236Z,35.1
2018-08-06T09:05:39.490Z,34.4
2018-08-06T09:10:42.047Z,36.3
2018-08-06T09:15:44.593Z,36.7
2018-08-06T09:20:46.890Z,37
2018-08-06T09:25:49.332Z,34.8
2018-08-06T09:30:51.933Z,32.5
2018-08-06T09:35:54.279Z,29.5
2018-08-06T09:40:56.820Z,28.1
2018-08-06T09:45:59.351Z,27.4
2018-08-06T09:51:01.620Z,26.9
2018-08-06T09:56:04.293Z,26.4
2018-08-06T10:01:06.600Z,26.2
2018-08-06T10:06:09.195Z,26.3
2018-08-06T10:11:11.458Z,26.1
2018-08-06T10:16:13.940Z,25.9
2018-08-06T10:21:16.433Z,25.9
2018-08-06T10:26:18.813Z,25.6
2018-08-06T10:31:21.289Z,25.6
2018-08-06T10:36:23.756Z,25.7
2018-08-06T10:41:26.345Z,25.8
2018-08-06T10:46:28.661Z,25.8
2018-08-06T10:51:31.145Z,25.8
2018-08-06T10:56:33.594Z,25.9
2018-08-06T11:01:36.035Z,26
2018-08-06T11:06:38.588Z,26.1
2018-08-06T11:11:41.014Z,26.1
2018-08-06T11:16:43.451Z,26.2
2018-08-06T11:21:45.941Z,26.3
2018-08-06T11:26:48.344Z,26.4
2018-08-06T11:31:50.804Z,26.6
2018-08-06T11:36:53.389Z,26.7
2018-08-06T11:41:55.718Z,26.7
2018-08-06T11:46:58.459Z,26.8
2018-08-06T11:52:00.663Z,26.7
2018-08-06T11:57:03.211Z,26.8
2018-08-06T12:02:05.562Z,27.1
2018-08-06T12:07:08.053Z,27.2
2018-08-06T12:12:10.482Z,27.3
2018-08-06T12:17:13.150Z,27.3
2018-08-06T12:22:15.457Z,27.4
2018-08-06T12:27:17.881Z,27.5
2018-08-06T12:32:20.417Z,27.5
2018-08-06T12:37:22.898Z,27.4
2018-08-06T12:42:25.240Z,27.4
2018-08-06T12:47:28.122Z,27.5
2018-08-06T12:52:30.136Z,27.5
2018-08-06T12:57:32.712Z,27.7
2018-08-06T13:02:35.054Z,27.9
2018-08-06T13:07:37.639Z,28
2018-08-06T13:12:40.011Z,28
2018-08-06T13:17:42.720Z,28.1
2018-08-06T13:22:44.971Z,28
2018-08-06T13:27:47.677Z,27.9
2018-08-06T13:32:49.836Z,28
2018-08-06T13:37:52.364Z,28.1
2018-08-06T13:42:54.725Z,28.3
2018-08-06T13:52:59.951Z,28.4
2018-08-06T13:58:02.291Z,28.3
2018-08-06T14:03:05.578Z,28.2
2018-08-06T14:08:07.256Z,28.4
2018-08-06T14:18:12.233Z,28.6
2018-08-06T14:23:14.457Z,28.6
2018-08-06T14:28:17.155Z,28.7
2018-08-06T14:33:19.378Z,28.6
2018-08-06T14:38:21.775Z,28.7
2018-08-06T14:43:24.235Z,28.9
2018-08-06T14:48:26.801Z,29.1
2018-08-06T14:53:29.209Z,29.1
2018-08-06T14:58:31.732Z,29.1
2018-08-06T15:03:34.098Z,29.2
2018-08-06T15:08:36.999Z,29.3
2018-08-06T15:13:39.034Z,29.2
2018-08-06T15:18:41.475Z,29.2
2018-08-06T15:23:44.266Z,28.9
2018-08-06T15:28:46.670Z,29
2018-08-06T15:33:48.819Z,29.2
2018-08-06T15:38:51.287Z,29.4
2018-08-06T15:43:53.785Z,29.3
2018-08-06T15:48:56.454Z,29.2
2018-08-06T15:53:58.802Z,29.1
2018-08-06T15:59:01.169Z,29.1
2018-08-06T16:04:04.013Z,29.2
2018-08-06T16:09:06.036Z,29.2
2018-08-06T16:14:08.561Z,29.1
2018-08-06T16:19:11.153Z,29
2018-08-06T16:24:13.434Z,29
2018-08-06T16:29:15.946Z,28.8
2018-08-06T16:34:18.330Z,28.8
2018-08-06T16:39:21.002Z,28.8
2018-08-06T16:44:23.639Z,28.7
2018-08-06T16:54:28.208Z,28.4
2018-08-06T16:59:30.914Z,28.2
2018-08-06T17:04:33.115Z,28
2018-08-06T17:09:35.623Z,27.8
2018-08-06T17:14:38.017Z,27.7
2018-08-06T17:19:40.527Z,27.5
2018-08-06T17:24:43.370Z,27.3
2018-08-06T17:29:45.550Z,27.2
2018-08-06T17:34:47.849Z,27.1
2018-08-06T17:39:50.349Z,27.1
2018-08-06T17:44:53.087Z,26.9
2018-08-06T17:54:57.808Z,26.6
2018-08-06T18:00:00.308Z,26.4
2018-08-06T18:05:02.769Z,26.2
2018-08-06T18:10:05.070Z,26.1
2018-08-06T18:15:07.577Z,25.9
2018-08-06T18:20:09.996Z,25.6
2018-08-06T18:25:12.486Z,25.5
2018-08-06T18:30:15.054Z,25.3
2018-08-06T18:35:17.576Z,25.1
2018-08-06T18:40:19.844Z,24.8
2018-08-06T18:45:22.262Z,24.4
2018-08-06T18:50:24.749Z,24
2018-08-06T18:55:27.183Z,23.5
2018-08-06T19:00:29.659Z,23
2018-08-06T19:05:32.141Z,22.5
2018-08-06T19:10:34.589Z,22.1
2018-08-06T19:15:37.234Z,21.7
2018-08-06T19:20:39.776Z,21.4
2018-08-06T19:25:42.176Z,21.2
2018-08-06T19:30:44.427Z,20.9
2018-08-06T19:35:46.880Z,20.7
2018-08-06T19:40:49.322Z,20.5
2018-08-06T19:45:51.767Z,20.3
2018-08-06T19:50:54.535Z,20.1
2018-08-06T19:55:56.908Z,20
2018-08-06T20:00:59.148Z,19.8
2018-08-06T20:06:01.610Z,19.8
2018-08-06T20:11:04.068Z,19.7
2018-08-06T20:16:06.551Z,19.6
2018-08-06T20:21:09.001Z,19.4
2018-08-06T20:26:11.514Z,19.3
2018-08-06T20:31:13.948Z,19.2
2018-08-06T20:36:16.644Z,18.9
2018-08-06T20:41:18.868Z,18.7
2018-08-06T20:46:21.357Z,18.5
2018-08-06T20:51:23.804Z,18.3
2018-08-06T20:56:26.368Z,18.1
2018-08-06T21:01:28.709Z,17.9
